sensor_id;sensor_type;location;lat;lon;timestamp;pressure;altitude;pressure_sealevel;temperature;humidity
59650;BME280;46162;57.568;25.814;2023-03-03T00:00:45;100087.72;;;-0.89;100.00
59650;BME280;46162;57.568;25.814;2023-03-03T00:03:15;100084.22;;;-0.90;100.00
59650;BME280;46162;57.568;25.814;2023-03-03T00:05:45;100078.06;;;-0.90;100.00
59650;BME280;46162;57.568;25.814;2023-03-03T00:08:13;100082.88;;;-0.97;100.00
59650;BME280;46162;57.568;25.814;2023-03-03T00:10:42;100069.53;;;-1.10;100.00
59650;BME280;46162;57.568;25.814;2023-03-03T00:13:16;100084.50;;;-1.09;100.00
59650;BME280;46162;57.568;25.814;2023-03-03T00:15:46;100079.78;;;-1.03;100.00
59650;BME280;46162;57.568;25.814;2023-03-03T00:18:20;100076.44;;;-1.07;100.00
59650;BME280;46162;57.568;25.814;2023-03-03T00:20:52;100070.38;;;-1.09;100.00
59650;BME280;46162;57.568;25.814;2023-03-03T00:23:30;100074.09;;;-0.97;100.00
59650;BME280;46162;57.568;25.814;2023-03-03T00:25:58;100068.16;;;-0.87;100.00
59650;BME280;46162;57.568;25.814;2023-03-03T00:28:30;100047.97;;;-0.89;100.00
59650;BME280;46162;57.568;25.814;2023-03-03T00:31:00;100053.44;;;-0.92;100.00
59650;BME280;46162;57.568;25.814;2023-03-03T00:33:32;100039.44;;;-0.80;100.00
59650;BME280;46162;57.568;25.814;2023-03-03T00:36:25;100045.31;;;-0.89;100.00
59650;BME280;46162;57.568;25.814;2023-03-03T00:39:17;100036.63;;;-0.91;100.00
59650;BME280;46162;57.568;25.814;2023-03-03T00:41:46;100033.56;;;-0.99;100.00
59650;BME280;46162;57.568;25.814;2023-03-03T00:44:40;100031.97;;;-1.02;100.00
59650;BME280;46162;57.568;25.814;2023-03-03T00:47:27;100035.47;;;-1.16;100.00
59650;BME280;46162;57.568;25.814;2023-03-03T00:53:01;100037.25;;;-1.31;100.00
59650;BME280;46162;57.568;25.814;2023-03-03T00:55:32;100033.16;;;-1.36;100.00
59650;BME280;46162;57.568;25.814;2023-03-03T00:58:02;100037.22;;;-1.45;100.00
59650;BME280;46162;57.568;25.814;2023-03-03T01:00:36;100032.78;;;-1.44;100.00
59650;BME280;46162;57.568;25.814;2023-03-03T01:03:09;100036.13;;;-1.41;100.00
59650;BME280;46162;57.568;25.814;2023-03-03T01:05:38;100034.50;;;-1.43;100.00
59650;BME280;46162;57.568;25.814;2023-03-03T01:08:06;100027.22;;;-1.40;100.00
59650;BME280;46162;57.568;25.814;2023-03-03T01:10:41;100022.75;;;-1.39;100.00
59650;BME280;46162;57.568;25.814;2023-03-03T01:13:11;100022.19;;;-1.44;100.00
59650;BME280;46162;57.568;25.814;2023-03-03T01:15:42;100035.16;;;-1.40;100.00
59650;BME280;46162;57.568;25.814;2023-03-03T01:18:13;100027.69;;;-1.33;100.00
59650;BME280;46162;57.568;25.814;2023-03-03T01:20:42;100028.09;;;-1.25;100.00
59650;BME280;46162;57.568;25.814;2023-03-03T01:23:11;100023.84;;;-1.13;100.00
59650;BME280;46162;57.568;25.814;2023-03-03T01:25:40;100022.81;;;-1.11;100.00
59650;BME280;46162;57.568;25.814;2023-03-03T01:28:09;100013.06;;;-1.10;100.00
59650;BME280;46162;57.568;25.814;2023-03-03T01:30:38;100019.00;;;-1.06;100.00
59650;BME280;46162;57.568;25.814;2023-03-03T01:33:08;100008.59;;;-1.10;100.00
59650;BME280;46162;57.568;25.814;2023-03-03T01:35:36;100010.31;;;-1.09;100.00
59650;BME280;46162;57.568;25.814;2023-03-03T01:38:07;100005.38;;;-1.15;100.00
59650;BME280;46162;57.568;25.814;2023-03-03T01:40:36;100014.09;;;-1.13;100.00
59650;BME280;46162;57.568;25.814;2023-03-03T01:43:04;100009.75;;;-1.14;100.00
59650;BME280;46162;57.568;25.814;2023-03-03T01:45:43;100005.19;;;-1.12;100.00
59650;BME280;46162;57.568;25.814;2023-03-03T01:48:36;100006.06;;;-1.11;100.00
59650;BME280;46162;57.568;25.814;2023-03-03T01:51:12;99996.88;;;-1.05;100.00
59650;BME280;46162;57.568;25.814;2023-03-03T01:53:45;99997.63;;;-1.03;100.00
59650;BME280;46162;57.568;25.814;2023-03-03T01:56:14;99996.47;;;-0.99;100.00
59650;BME280;46162;57.568;25.814;2023-03-03T01:58:45;99998.00;;;-0.95;100.00
59650;BME280;46162;57.568;25.814;2023-03-03T02:01:20;99994.50;;;-0.96;100.00
59650;BME280;46162;57.568;25.814;2023-03-03T02:03:51;99994.22;;;-0.91;100.00
59650;BME280;46162;57.568;25.814;2023-03-03T02:06:24;99992.13;;;-0.86;100.00
59650;BME280;46162;57.568;25.814;2023-03-03T02:08:58;99992.78;;;-0.82;100.00
59650;BME280;46162;57.568;25.814;2023-03-03T02:11:30;99988.31;;;-0.82;100.00
59650;BME280;46162;57.568;25.814;2023-03-03T02:14:00;99980.69;;;-0.87;100.00
59650;BME280;46162;57.568;25.814;2023-03-03T02:16:29;99984.19;;;-0.86;100.00
59650;BME280;46162;57.568;25.814;2023-03-03T02:19:00;99984.34;;;-0.89;100.00
59650;BME280;46162;57.568;25.814;2023-03-03T02:21:29;99979.94;;;-0.89;100.00
59650;BME280;46162;57.568;25.814;2023-03-03T02:24:02;99977.38;;;-0.90;100.00
59650;BME280;46162;57.568;25.814;2023-03-03T02:26:38;99975.69;;;-0.91;100.00
59650;BME280;46162;57.568;25.814;2023-03-03T02:29:09;99975.84;;;-0.94;100.00
59650;BME280;46162;57.568;25.814;2023-03-03T02:31:40;99960.34;;;-1.00;100.00
59650;BME280;46162;57.568;25.814;2023-03-03T02:34:09;99965.56;;;-0.99;100.00
59650;BME280;46162;57.568;25.814;2023-03-03T02:36:39;99960.34;;;-1.00;100.00
59650;BME280;46162;57.568;25.814;2023-03-03T02:39:10;99954.09;;;-0.99;100.00
59650;BME280;46162;57.568;25.814;2023-03-03T02:41:47;99958.34;;;-0.97;100.00
59650;BME280;46162;57.568;25.814;2023-03-03T02:44:22;99955.06;;;-1.00;100.00
59650;BME280;46162;57.568;25.814;2023-03-03T02:46:52;99961.88;;;-0.96;100.00
59650;BME280;46162;57.568;25.814;2023-03-03T02:49:23;99952.69;;;-0.91;100.00
59650;BME280;46162;57.568;25.814;2023-03-03T02:51:52;99948.78;;;-0.85;100.00
59650;BME280;46162;57.568;25.814;2023-03-03T02:54:24;99952.38;;;-0.86;100.00
59650;BME280;46162;57.568;25.814;2023-03-03T02:56:55;99947.84;;;-0.84;100.00
59650;BME280;46162;57.568;25.814;2023-03-03T02:59:23;99942.34;;;-0.81;100.00
59650;BME280;46162;57.568;25.814;2023-03-03T03:01:54;99933.34;;;-0.78;100.00
59650;BME280;46162;57.568;25.814;2023-03-03T03:04:24;99928.81;;;-0.76;100.00
59650;BME280;46162;57.568;25.814;2023-03-03T03:06:55;99939.13;;;-0.72;100.00
59650;BME280;46162;57.568;25.814;2023-03-03T03:09:29;99929.06;;;-0.67;100.00
59650;BME280;46162;57.568;25.814;2023-03-03T03:11:59;99930.97;;;-0.69;100.00
59650;BME280;46162;57.568;25.814;2023-03-03T03:14:32;99931.81;;;-0.68;100.00
59650;BME280;46162;57.568;25.814;2023-03-03T03:17:00;99927.47;;;-0.69;100.00
59650;BME280;46162;57.568;25.814;2023-03-03T03:19:29;99923.25;;;-0.59;100.00
59650;BME280;46162;57.568;25.814;2023-03-03T03:22:00;99931.31;;;-0.60;100.00
59650;BME280;46162;57.568;25.814;2023-03-03T03:24:31;99933.75;;;-0.57;100.00
59650;BME280;46162;57.568;25.814;2023-03-03T03:27:05;99923.31;;;-0.46;100.00
59650;BME280;46162;57.568;25.814;2023-03-03T03:29:35;99927.66;;;-0.45;100.00
59650;BME280;46162;57.568;25.814;2023-03-03T03:32:04;99928.41;;;-0.43;100.00
59650;BME280;46162;57.568;25.814;2023-03-03T03:34:33;99922.16;;;-0.42;100.00
59650;BME280;46162;57.568;25.814;2023-03-03T03:37:03;99922.16;;;-0.42;100.00
59650;BME280;46162;57.568;25.814;2023-03-03T03:39:32;99920.59;;;-0.32;100.00
59650;BME280;46162;57.568;25.814;2023-03-03T03:42:01;99910.59;;;-0.41;100.00
59650;BME280;46162;57.568;25.814;2023-03-03T03:44:32;99914.00;;;-0.39;100.00
59650;BME280;46162;57.568;25.814;2023-03-03T03:47:01;99917.19;;;-0.34;100.00
59650;BME280;46162;57.568;25.814;2023-03-03T03:49:29;99922.19;;;-0.29;100.00
59650;BME280;46162;57.568;25.814;2023-03-03T03:51:59;99914.44;;;-0.32;100.00
59650;BME280;46162;57.568;25.814;2023-03-03T03:54:30;99909.31;;;-0.35;100.00
59650;BME280;46162;57.568;25.814;2023-03-03T03:56:59;99919.09;;;-0.36;100.00
59650;BME280;46162;57.568;25.814;2023-03-03T03:59:28;99912.66;;;-0.32;100.00
59650;BME280;46162;57.568;25.814;2023-03-03T04:01:59;99912.09;;;-0.37;100.00
59650;BME280;46162;57.568;25.814;2023-03-03T04:04:28;99905.09;;;-0.38;100.00
59650;BME280;46162;57.568;25.814;2023-03-03T04:06:57;99906.78;;;-0.37;100.00
59650;BME280;46162;57.568;25.814;2023-03-03T04:09:30;99906.59;;;-0.34;100.00
59650;BME280;46162;57.568;25.814;2023-03-03T04:12:01;99906.88;;;-0.38;100.00
59650;BME280;46162;57.568;25.814;2023-03-03T04:14:30;99908.19;;;-0.31;100.00
59650;BME280;46162;57.568;25.814;2023-03-03T04:17:01;99912.09;;;-0.37;100.00
59650;BME280;46162;57.568;25.814;2023-03-03T04:19:31;99910.38;;;-0.38;100.00
59650;BME280;46162;57.568;25.814;2023-03-03T04:22:00;99910.69;;;-0.43;100.00
59650;BME280;46162;57.568;25.814;2023-03-03T04:24:29;99909.28;;;-0.48;100.00
59650;BME280;46162;57.568;25.814;2023-03-03T04:26:59;99911.31;;;-0.52;100.00
59650;BME280;46162;57.568;25.814;2023-03-03T04:29:29;99916.59;;;-0.52;100.00
59650;BME280;46162;57.568;25.814;2023-03-03T04:31:58;99908.00;;;-0.55;100.00
59650;BME280;46162;57.568;25.814;2023-03-03T04:34:29;99905.00;;;-0.63;100.00
59650;BME280;46162;57.568;25.814;2023-03-03T04:36:58;99910.50;;;-0.67;100.00
59650;BME280;46162;57.568;25.814;2023-03-03T04:39:29;99907.38;;;-0.73;100.00
59650;BME280;46162;57.568;25.814;2023-03-03T04:41:58;99903.13;;;-0.76;100.00
59650;BME280;46162;57.568;25.814;2023-03-03T04:44:28;99900.50;;;-0.76;100.00
59650;BME280;46162;57.568;25.814;2023-03-03T04:47:00;99902.19;;;-0.75;100.00
59650;BME280;46162;57.568;25.814;2023-03-03T04:49:31;99904.19;;;-0.78;100.00
59650;BME280;46162;57.568;25.814;2023-03-03T04:52:01;99910.25;;;-0.76;100.00
59650;BME280;46162;57.568;25.814;2023-03-03T04:54:30;99909.28;;;-0.75;100.00
59650;BME280;46162;57.568;25.814;2023-03-03T04:57:00;99911.09;;;-0.76;100.00
59650;BME280;46162;57.568;25.814;2023-03-03T04:59:31;99913.94;;;-0.79;100.00
59650;BME280;46162;57.568;25.814;2023-03-03T05:02:00;99916.78;;;-0.82;100.00
59650;BME280;46162;57.568;25.814;2023-03-03T05:04:32;99913.41;;;-0.84;100.00
59650;BME280;46162;57.568;25.814;2023-03-03T05:07:04;99915.28;;;-0.86;100.00
59650;BME280;46162;57.568;25.814;2023-03-03T05:09:33;99911.03;;;-0.89;100.00
59650;BME280;46162;57.568;25.814;2023-03-03T05:12:02;99911.03;;;-0.89;100.00
59650;BME280;46162;57.568;25.814;2023-03-03T05:14:31;99911.19;;;-0.92;100.00
59650;BME280;46162;57.568;25.814;2023-03-03T05:17:00;99908.66;;;-0.93;100.00
59650;BME280;46162;57.568;25.814;2023-03-03T05:19:31;99915.66;;;-0.92;100.00
59650;BME280;46162;57.568;25.814;2023-03-03T05:22:01;99921.63;;;-0.89;100.00
59650;BME280;46162;57.568;25.814;2023-03-03T05:24:30;99915.56;;;-0.91;100.00
59650;BME280;46162;57.568;25.814;2023-03-03T05:27:01;99913.78;;;-0.90;100.00
59650;BME280;46162;57.568;25.814;2023-03-03T05:29:31;99917.94;;;-0.86;100.00
59650;BME280;46162;57.568;25.814;2023-03-03T05:32:00;99918.78;;;-0.85;100.00
59650;BME280;46162;57.568;25.814;2023-03-03T05:34:29;99919.75;;;-0.87;100.00
59650;BME280;46162;57.568;25.814;2023-03-03T05:36:59;99925.69;;;-0.83;100.00
59650;BME280;46162;57.568;25.814;2023-03-03T05:39:30;99913.41;;;-0.84;100.00
59650;BME280;46162;57.568;25.814;2023-03-03T05:41:58;99923.78;;;-0.81;100.00
59650;BME280;46162;57.568;25.814;2023-03-03T05:44:27;99927.19;;;-0.79;100.00
59650;BME280;46162;57.568;25.814;2023-03-03T05:46:56;99933.44;;;-0.80;100.00
59650;BME280;46162;57.568;25.814;2023-03-03T05:49:25;99930.78;;;-0.80;100.00
59650;BME280;46162;57.568;25.814;2023-03-03T05:51:54;99931.63;;;-0.79;100.00
59650;BME280;46162;57.568;25.814;2023-03-03T05:54:25;99936.84;;;-0.78;100.00
59650;BME280;46162;57.568;25.814;2023-03-03T05:56:54;99945.75;;;-0.79;100.00
59650;BME280;46162;57.568;25.814;2023-03-03T05:59:26;99949.88;;;-0.75;100.00
59650;BME280;46162;57.568;25.814;2023-03-03T06:01:59;99950.84;;;-0.76;100.00
59650;BME280;46162;57.568;25.814;2023-03-03T06:04:30;99950.84;;;-0.76;100.00
59650;BME280;46162;57.568;25.814;2023-03-03T06:07:02;99950.84;;;-0.76;100.00
59650;BME280;46162;57.568;25.814;2023-03-03T06:09:33;99956.53;;;-0.82;100.00
59650;BME280;46162;57.568;25.814;2023-03-03T06:12:02;99953.88;;;-0.82;100.00
59650;BME280;46162;57.568;25.814;2023-03-03T06:14:31;99962.03;;;-0.85;100.00
59650;BME280;46162;57.568;25.814;2023-03-03T06:17:00;99952.38;;;-0.86;100.00
59650;BME280;46162;57.568;25.814;2023-03-03T06:19:29;99966.41;;;-0.84;100.00
59650;BME280;46162;57.568;25.814;2023-03-03T06:22:01;99957.50;;;-0.83;100.00
59650;BME280;46162;57.568;25.814;2023-03-03T06:24:30;99952.56;;;-0.89;100.00
59650;BME280;46162;57.568;25.814;2023-03-03T06:27:00;99953.44;;;-0.89;100.00
59650;BME280;46162;57.568;25.814;2023-03-03T06:29:29;99951.44;;;-0.85;100.00
59650;BME280;46162;57.568;25.814;2023-03-03T06:31:58;99954.91;;;-0.84;100.00
59650;BME280;46162;57.568;25.814;2023-03-03T06:34:30;99958.44;;;-0.84;100.00
59650;BME280;46162;57.568;25.814;2023-03-03T06:36:59;99957.56;;;-0.84;100.00
59650;BME280;46162;57.568;25.814;2023-03-03T06:39:28;99954.28;;;-0.88;100.00
59650;BME280;46162;57.568;25.814;2023-03-03T06:42:01;99956.44;;;-0.80;100.00
59650;BME280;46162;57.568;25.814;2023-03-03T06:44:30;99959.00;;;-0.79;100.00
59650;BME280;46162;57.568;25.814;2023-03-03T06:46:59;99959.66;;;-0.75;100.00
59650;BME280;46162;57.568;25.814;2023-03-03T06:49:28;99952.53;;;-0.75;100.00
59650;BME280;46162;57.568;25.814;2023-03-03T06:51:58;99955.03;;;-0.72;100.00
59650;BME280;46162;57.568;25.814;2023-03-03T06:54:29;99966.25;;;-0.68;100.00
59650;BME280;46162;57.568;25.814;2023-03-03T06:57:02;99964.56;;;-0.69;100.00
59650;BME280;46162;57.568;25.814;2023-03-03T06:59:44;99969.00;;;-0.70;100.00
59650;BME280;46162;57.568;25.814;2023-03-03T07:02:37;99950.72;;;-0.74;100.00
59650;BME280;46162;57.568;25.814;2023-03-03T07:05:15;99957.47;;;-0.69;100.00
59650;BME280;46162;57.568;25.814;2023-03-03T07:07:57;99955.56;;;-0.67;100.00
59650;BME280;46162;57.568;25.814;2023-03-03T07:10:28;99958.78;;;-0.61;100.00
59650;BME280;46162;57.568;25.814;2023-03-03T07:13:16;99961.31;;;-0.60;100.00
59650;BME280;46162;57.568;25.814;2023-03-03T07:15:50;99961.84;;;-0.55;100.00
59650;BME280;46162;57.568;25.814;2023-03-03T07:18:34;99968.97;;;-0.55;100.00
59650;BME280;46162;57.568;25.814;2023-03-03T07:21:21;99961.03;;;-0.55;100.00
59650;BME280;46162;57.568;25.814;2023-03-03T07:23:57;99958.72;;;-0.47;100.00
59650;BME280;46162;57.568;25.814;2023-03-03T07:26:29;99953.53;;;-0.49;100.00
59650;BME280;46162;57.568;25.814;2023-03-03T07:29:18;99966.19;;;-0.39;100.00
59650;BME280;46162;57.568;25.814;2023-03-03T07:32:12;99947.94;;;-0.44;100.00
59650;BME280;46162;57.568;25.814;2023-03-03T07:35:21;99939.22;;;-0.46;100.00
59650;BME280;46162;57.568;25.814;2023-03-03T07:37:58;99950.97;;;-0.50;100.00
59650;BME280;46162;57.568;25.814;2023-03-03T07:40:47;99952.47;;;-0.46;100.00
59650;BME280;46162;57.568;25.814;2023-03-03T07:43:33;99949.81;;;-0.46;100.00
59650;BME280;46162;57.568;25.814;2023-03-03T07:46:25;99943.94;;;-0.37;100.00
59650;BME280;46162;57.568;25.814;2023-03-03T07:49:20;99939.06;;;-0.30;100.00
59650;BME280;46162;57.568;25.814;2023-03-03T07:52:35;99947.84;;;-0.30;100.00
59650;BME280;46162;57.568;25.814;2023-03-03T07:55:24;99957.75;;;-0.32;100.00
59650;BME280;46162;57.568;25.814;2023-03-03T07:58:19;99961.78;;;-0.26;100.00
59650;BME280;46162;57.568;25.814;2023-03-03T08:04:10;99961.31;;;-0.33;100.00
59650;BME280;46162;57.568;25.814;2023-03-03T08:06:47;99971.94;;;-0.33;100.00
59650;BME280;46162;57.568;25.814;2023-03-03T08:09:38;99960.56;;;-0.35;100.00
59650;BME280;46162;57.568;25.814;2023-03-03T08:15:17;99964.72;;;-0.31;100.00
59650;BME280;46162;57.568;25.814;2023-03-03T08:17:50;99966.41;;;-0.30;100.00
59650;BME280;46162;57.568;25.814;2023-03-03T08:20:47;99961.78;;;-0.26;100.00
59650;BME280;46162;57.568;25.814;2023-03-03T08:23:22;99961.47;;;-0.22;100.00
59650;BME280;46162;57.568;25.814;2023-03-03T08:25:53;99951.16;;;-0.26;100.00
59650;BME280;46162;57.568;25.814;2023-03-03T08:28:32;99965.81;;;-0.20;100.00
59650;BME280;46162;57.568;25.814;2023-03-03T08:31:01;99961.13;;;-0.30;100.00
59650;BME280;46162;57.568;25.814;2023-03-03T08:33:51;99964.28;;;-0.37;100.00
59650;BME280;46162;57.568;25.814;2023-03-03T08:36:21;99975.81;;;-0.24;100.00
59650;BME280;46162;57.568;25.814;2023-03-03T08:38:53;99982.34;;;-0.30;100.00
59650;BME280;46162;57.568;25.814;2023-03-03T08:41:29;99972.63;;;-0.16;100.00
59650;BME280;46162;57.568;25.814;2023-03-03T08:44:02;99974.88;;;-0.10;100.00
59650;BME280;46162;57.568;25.814;2023-03-03T08:46:35;99983.25;;;-0.16;100.00
59650;BME280;46162;57.568;25.814;2023-03-03T08:49:11;99975.09;;;-0.13;100.00
59650;BME280;46162;57.568;25.814;2023-03-03T08:51:52;99972.22;;;-0.10;100.00
59650;BME280;46162;57.568;25.814;2023-03-03T08:54:23;99972.88;;;-0.07;100.00
59650;BME280;46162;57.568;25.814;2023-03-03T08:56:52;99971.84;;;-0.04;100.00
59650;BME280;46162;57.568;25.814;2023-03-03T08:59:23;99977.47;;;0.04;100.00
59650;BME280;46162;57.568;25.814;2023-03-03T09:01:52;99974.38;;;-0.03;100.00
59650;BME280;46162;57.568;25.814;2023-03-03T09:04:21;99972.28;;;0.03;100.00
59650;BME280;46162;57.568;25.814;2023-03-03T09:06:52;99961.22;;;-0.04;100.00
59650;BME280;46162;57.568;25.814;2023-03-03T09:09:31;99971.84;;;-0.04;100.00
59650;BME280;46162;57.568;25.814;2023-03-03T09:12:12;99962.50;;;0.03;100.00
59650;BME280;46162;57.568;25.814;2023-03-03T09:14:46;99967.59;;;0.06;100.00
59650;BME280;46162;57.568;25.814;2023-03-03T09:17:25;99971.88;;;0.21;100.00
59650;BME280;46162;57.568;25.814;2023-03-03T09:19:57;99967.66;;;0.32;100.00
59650;BME280;46162;57.568;25.814;2023-03-03T09:22:31;99969.25;;;0.34;100.00
59650;BME280;46162;57.568;25.814;2023-03-03T09:25:13;99963.41;;;0.29;100.00
59650;BME280;46162;57.568;25.814;2023-03-03T09:27:46;99963.41;;;0.29;100.00
59650;BME280;46162;57.568;25.814;2023-03-03T09:30:34;99974.75;;;0.31;100.00
59650;BME280;46162;57.568;25.814;2023-03-03T09:33:37;99978.06;;;0.35;100.00
59650;BME280;46162;57.568;25.814;2023-03-03T09:36:22;99968.63;;;0.43;100.00
59650;BME280;46162;57.568;25.814;2023-03-03T09:38:54;99969.69;;;0.41;100.00
59650;BME280;46162;57.568;25.814;2023-03-03T09:41:47;99972.03;;;0.58;100.00
59650;BME280;46162;57.568;25.814;2023-03-03T09:44:56;99968.22;;;0.62;100.00
59650;BME280;46162;57.568;25.814;2023-03-03T09:47:52;99961.09;;;0.63;100.00
59650;BME280;46162;57.568;25.814;2023-03-03T09:50:33;99972.03;;;0.71;100.00
59650;BME280;46162;57.568;25.814;2023-03-03T09:53:17;99963.44;;;0.68;100.00
59650;BME280;46162;57.568;25.814;2023-03-03T09:55:54;99967.38;;;0.62;100.00
59650;BME280;46162;57.568;25.814;2023-03-03T09:58:58;99960.03;;;0.66;100.00
59650;BME280;46162;57.568;25.814;2023-03-03T10:01:49;99958.53;;;0.61;100.00
59650;BME280;46162;57.568;25.814;2023-03-03T10:04:29;99957.59;;;0.62;100.00
59650;BME280;46162;57.568;25.814;2023-03-03T10:07:24;99962.16;;;0.60;100.00
59650;BME280;46162;57.568;25.814;2023-03-03T10:10:05;99961.19;;;0.61;100.00
59650;BME280;46162;57.568;25.814;2023-03-03T10:12:59;99962.25;;;0.72;100.00
59650;BME280;46162;57.568;25.814;2023-03-03T10:15:39;99955.22;;;0.83;100.00
59650;BME280;46162;57.568;25.814;2023-03-03T10:18:27;99953.63;;;0.81;100.00
59650;BME280;46162;57.568;25.814;2023-03-03T10:21:08;99948.53;;;0.78;100.00
59650;BME280;46162;57.568;25.814;2023-03-03T10:23:55;99956.75;;;0.75;100.00
59650;BME280;46162;57.568;25.814;2023-03-03T10:26:55;99951.75;;;0.70;100.00
59650;BME280;46162;57.568;25.814;2023-03-03T10:29:55;99955.25;;;0.71;100.00
59650;BME280;46162;57.568;25.814;2023-03-03T10:32:48;99956.22;;;0.70;100.00
59650;BME280;46162;57.568;25.814;2023-03-03T10:35:44;99948.34;;;0.68;100.00
59650;BME280;46162;57.568;25.814;2023-03-03T10:38:49;99950.91;;;0.70;100.00
59650;BME280;46162;57.568;25.814;2023-03-03T10:44:50;99944.72;;;0.69;100.00
59650;BME280;46162;57.568;25.814;2023-03-03T10:47:34;99943.25;;;0.65;100.00
59650;BME280;46162;57.568;25.814;2023-03-03T10:50:18;99944.09;;;0.66;100.00
59650;BME280;46162;57.568;25.814;2023-03-03T10:52:52;99947.91;;;0.61;100.00
59650;BME280;46162;57.568;25.814;2023-03-03T10:55:33;99943.03;;;0.68;100.00
59650;BME280;46162;57.568;25.814;2023-03-03T10:58:19;99938.03;;;0.63;100.00
59650;BME280;46162;57.568;25.814;2023-03-03T11:00:59;99934.97;;;0.70;100.00
59650;BME280;46162;57.568;25.814;2023-03-03T11:03:56;99941.97;;;0.71;100.00
59650;BME280;46162;57.568;25.814;2023-03-03T11:06:39;99938.31;;;0.72;100.00
59650;BME280;46162;57.568;25.814;2023-03-03T11:09:22;99943.63;;;0.72;100.00
59650;BME280;46162;57.568;25.814;2023-03-03T11:12:26;99939.31;;;0.71;100.00
59650;BME280;46162;57.568;25.814;2023-03-03T11:18:15;99936.31;;;0.75;100.00
59650;BME280;46162;57.568;25.814;2023-03-03T11:21:00;99933.16;;;0.70;100.00
59650;BME280;46162;57.568;25.814;2023-03-03T11:23:52;99935.91;;;0.69;100.00
59650;BME280;46162;57.568;25.814;2023-03-03T11:26:41;99933.38;;;0.67;100.00
59650;BME280;46162;57.568;25.814;2023-03-03T11:29:24;99929.13;;;0.64;100.00
59650;BME280;46162;57.568;25.814;2023-03-03T11:32:05;99922.63;;;0.69;100.00
59650;BME280;46162;57.568;25.814;2023-03-03T11:34:54;99926.75;;;0.73;100.00
59650;BME280;46162;57.568;25.814;2023-03-03T11:37:28;99927.06;;;0.81;100.00
59650;BME280;46162;57.568;25.814;2023-03-03T11:40:13;99918.69;;;0.87;100.00
59650;BME280;46162;57.568;25.814;2023-03-03T11:42:58;99914.31;;;0.86;100.00
59650;BME280;46162;57.568;25.814;2023-03-03T11:45:53;99913.56;;;0.84;100.00
59650;BME280;46162;57.568;25.814;2023-03-03T11:48:32;99909.22;;;0.83;100.00
59650;BME280;46162;57.568;25.814;2023-03-03T11:51:12;99908.78;;;0.89;100.00
59650;BME280;46162;57.568;25.814;2023-03-03T11:54:04;99907.50;;;0.95;100.00
59650;BME280;46162;57.568;25.814;2023-03-03T11:56:48;99903.13;;;0.94;100.00
59650;BME280;46162;57.568;25.814;2023-03-03T11:59:43;99891.66;;;0.93;100.00
59650;BME280;46162;57.568;25.814;2023-03-03T12:02:45;99880.47;;;1.01;100.00
59650;BME280;46162;57.568;25.814;2023-03-03T12:05:37;99888.94;;;1.06;100.00
59650;BME280;46162;57.568;25.814;2023-03-03T12:08:33;99897.81;;;1.06;100.00
59650;BME280;46162;57.568;25.814;2023-03-03T12:11:09;99900.00;;;1.13;100.00
59650;BME280;46162;57.568;25.814;2023-03-03T12:13:57;99892.53;;;1.18;100.00
59650;BME280;46162;57.568;25.814;2023-03-03T12:16:42;99889.59;;;1.10;100.00
59650;BME280;46162;57.568;25.814;2023-03-03T12:19:26;99878.72;;;1.13;100.00
59650;BME280;46162;57.568;25.814;2023-03-03T12:22:12;99883.22;;;1.12;100.00
59650;BME280;46162;57.568;25.814;2023-03-03T12:25:03;99869.78;;;1.14;100.00
59650;BME280;46162;57.568;25.814;2023-03-03T12:27:46;99874.19;;;1.26;100.00
59650;BME280;46162;57.568;25.814;2023-03-03T12:30:32;99866.59;;;1.21;100.00
59650;BME280;46162;57.568;25.814;2023-03-03T12:33:15;99863.19;;;1.19;100.00
59650;BME280;46162;57.568;25.814;2023-03-03T12:35:55;99865.72;;;1.21;100.00
59650;BME280;46162;57.568;25.814;2023-03-03T12:38:36;99862.13;;;1.22;100.00
59650;BME280;46162;57.568;25.814;2023-03-03T12:41:14;99853.63;;;1.17;100.00
59650;BME280;46162;57.568;25.814;2023-03-03T12:43:55;99854.19;;;1.09;100.00
59650;BME280;46162;57.568;25.814;2023-03-03T12:46:40;99859.50;;;1.09;100.00
59650;BME280;46162;57.568;25.814;2023-03-03T12:49:12;99851.41;;;1.11;100.00
59650;BME280;46162;57.568;25.814;2023-03-03T12:51:54;99851.31;;;1.12;100.00
59650;BME280;46162;57.568;25.814;2023-03-03T12:54:48;99852.59;;;1.06;100.00
59650;BME280;46162;57.568;25.814;2023-03-03T12:57:30;99845.34;;;1.08;100.00
59650;BME280;46162;57.568;25.814;2023-03-03T13:00:25;99842.47;;;1.12;100.00
59650;BME280;46162;57.568;25.814;2023-03-03T13:03:12;99831.28;;;1.19;100.00
59650;BME280;46162;57.568;25.814;2023-03-03T13:05:56;99828.50;;;1.21;100.00
59650;BME280;46162;57.568;25.814;2023-03-03T13:08:42;99823.81;;;1.24;100.00
59650;BME280;46162;57.568;25.814;2023-03-03T13:11:32;99816.09;;;1.33;100.00
59650;BME280;46162;57.568;25.814;2023-03-03T13:14:20;99818.44;;;1.37;100.00
59650;BME280;46162;57.568;25.814;2023-03-03T13:17:07;99806.03;;;1.25;100.00
59650;BME280;46162;57.568;25.814;2023-03-03T13:19:42;99806.63;;;1.17;100.00
59650;BME280;46162;57.568;25.814;2023-03-03T13:22:43;99804.28;;;1.13;100.00
59650;BME280;46162;57.568;25.814;2023-03-03T13:25:46;99805.19;;;1.00;100.00
59650;BME280;46162;57.568;25.814;2023-03-03T13:28:23;99792.81;;;0.88;100.00
59650;BME280;46162;57.568;25.814;2023-03-03T13:31:02;99797.38;;;0.86;100.00
59650;BME280;46162;57.568;25.814;2023-03-03T13:33:34;99797.69;;;0.81;100.00
59650;BME280;46162;57.568;25.814;2023-03-03T13:36:07;99801.44;;;0.79;100.00
59650;BME280;46162;57.568;25.814;2023-03-03T13:38:40;99785.50;;;0.79;100.00
59650;BME280;46162;57.568;25.814;2023-03-03T13:41:20;99787.44;;;0.77;100.00
59650;BME280;46162;57.568;25.814;2023-03-03T13:43:55;99799.75;;;0.78;100.00
59650;BME280;46162;57.568;25.814;2023-03-03T13:46:39;99794.44;;;0.78;100.00
59650;BME280;46162;57.568;25.814;2023-03-03T13:49:27;99792.75;;;0.77;100.00